Latest Weather Observations for Friendly Beaches

IDT60801

Issued at 6:31 pm EDT Tuesday 17 October 2017 (issued every 30 minutes, with the page automatically refreshed every 10 minutes)

About weather observations | Map of weather stations | Latest weather observations for TAS | Other Formats
Station Details ID: 092114 Name: FRIENDLY BEACHES Lat: -42.00 Lon: 148.28 Height: 55.0 m
Data from the previous 72 hours. | See also: Recent months at Friendly Beaches
Date/Time
EDT
Temp
°C
App
Temp
°C
Dew
Point
°C
Rel
Hum
%
Delta-T
°C
Wind Press
QNH
hPa
Press
MSL
hPa
Rain since
9am
mm
Dir  Spd
km/h
Gust
km/h
Spd
kts
Gust
kts
17/06:30pm 16.6 16.2 15.1 91 0.9 SE 11 15 6 8 1021.3 1021.3 0.0
17/06:00pm 17.4 16.4 14.7 84 1.6 ESE 13 17 7 9 1021.2 1021.2 0.0
17/05:30pm 17.7 16.4 13.6 77 2.3 ESE 13 15 7 8 1021.2 1021.2 0.0
17/05:00pm 17.5 17.5 17.3 99 0.1 ESE 13 17 7 9 1021.3 1021.3 0.0
17/04:30pm 17.5 16.7 15.1 86 1.4 E 13 17 7 9 1021.3 1021.3 0.0
17/04:00pm 20.6 18.6 12.8 61 4.4 NE 15 26 8 14 1021.3 1021.3 0.0
17/03:30pm 21.2 22.3 21.2 100 0.0 NNE 17 30 9 16 1021.3 1021.3 0.0
17/03:00pm 19.0 16.9 13.6 71 3.1 NNE 17 30 9 16 1021.6 1021.6 0.0
17/02:30pm 21.8 19.7 15.2 66 3.9 NNE 20 28 11 15 1021.8 1021.8 0.0
17/02:00pm 22.0 20.0 15.4 66 3.9 NE 20 30 11 16 1021.9 1021.9 0.0
17/01:30pm 22.1 22.1 19.8 87 1.5 NE 19 28 10 15 1022.0 1022.0 0.0
17/01:00pm 20.6 17.8 13.3 63 4.2 NNE 20 32 11 17 1022.5 1022.5 0.0
17/12:30pm 20.2 18.9 16.8 81 2.1 NE 19 28 10 15 1022.7 1022.7 0.0
17/12:00pm 18.2 17.4 14.1 77 2.3 E 11 17 6 9 1023.2 1023.2 0.0
17/11:30am 17.7 16.5 14.0 79 2.1 E 13 19 7 10 1023.4 1023.4 0.0
17/11:00am 16.8 15.4 12.3 75 2.5 ESE 11 15 6 8 1023.6 1023.6 0.0
17/10:30am 16.4 14.9 11.8 74 2.5 ESE 11 15 6 8 1023.8 1023.8 0.0
17/10:00am 17.1 16.1 12.2 73 2.7 NE 9 15 5 8 1023.6 1023.6 0.0
17/09:30am 16.7 15.9 12.8 78 2.2 ENE 9 15 5 8 1023.7 1023.7 0.0
17/09:00am 16.4 15.9 12.6 78 2.1 E 7 13 4 7 1023.4 1023.4 0.0
17/08:30am 15.1 14.6 12.2 83 1.6 ESE 6 9 3 5 1023.3 1023.3 0.0
17/08:00am 13.6 14.0 13.6 100 0.0 SE 4 7 2 4 1023.5 1023.5 0.0
17/07:30am 12.6 12.7 12.6 100 0.0 SE 4 6 2 3 1023.0 1023.0 0.0
17/07:00am 11.8 12.3 11.5 98 0.2 CALM 0 0 0 0 1022.7 1022.7 0.0
17/06:30am 10.4 9.6 9.8 96 0.3 SSE 4 6 2 3 1022.8 1022.8 0.0
17/06:00am 10.3 9.5 9.5 95 0.4 SSE 4 4 2 2 1022.8 1022.8 0.0
17/05:30am 10.5 9.2 9.9 96 0.3 S 7 7 4 4 1022.7 1022.7 0.0
17/05:00am 10.3 9.2 10.1 99 0.1 S 6 9 3 5 1022.6 1022.6 0.0
17/04:30am 10.7 - - - - CALM 0 0 0 0 1022.5 1022.5 0.0
17/04:00am 10.7 - - - - SSE 2 4 1 2 1022.2 1022.2 0.0
17/03:30am 10.8 - - - - ESE 4 6 2 3 1022.3 1022.3 0.0
17/03:00am 10.6 10.1 10.6 100 0.0 SSE 4 7 2 4 1022.7 1022.7 0.0
17/02:30am 10.9 10.4 10.9 100 0.0 S 4 6 2 3 1022.6 1022.6 0.0
17/02:00am 10.9 10.4 10.9 100 0.0 SE 4 6 2 3 1022.8 1022.8 0.0
17/01:30am 11.3 11.3 11.3 100 0.0 ENE 2 4 1 2 1023.2 1023.2 0.0
17/01:00am 11.3 10.3 11.0 98 0.2 NNE 7 9 4 5 1023.4 1023.4 0.0
17/12:30am 12.2 12.1 12.2 100 0.0 NNW 4 6 2 3 1023.6 1023.6 0.0
17/12:00am 11.6 11.0 11.6 100 0.0 S 6 7 3 4 1023.7 1023.7 0.0
 
Date/Time
EDT
Temp
°C
App
Temp
°C
Dew
Point
°C
Rel
Hum
%
Delta-T
°C
Wind Press
QNH
hPa
Press
MSL
hPa
Rain since
9am
mm
Dir  Spd
km/h
Gust
km/h
Spd
kts
Gust
kts
16/11:30pm 11.3 10.5 11.1 99 0.1 S 6 9 3 5 1023.7 1023.7 0.0
16/11:00pm 11.6 11.7 11.6 100 0.0 S 2 4 1 2 1023.8 1023.8 0.0
16/10:30pm 12.1 12.0 12.1 100 0.0 SE 4 6 2 3 1024.0 1024.0 0.0
16/10:00pm 12.0 12.5 11.5 97 0.3 CALM 0 2 0 1 1024.0 1024.0 0.0
16/09:30pm 12.4 12.0 11.1 92 0.7 SSE 4 6 2 3 1024.0 1024.0 0.0
16/09:00pm 12.4 12.4 11.0 91 0.7 SSE 2 6 1 3 1024.0 1024.0 0.0
16/08:30pm 12.9 12.8 10.8 87 1.1 SSE 2 6 1 3 1023.7 1023.7 0.0
16/08:00pm 13.1 12.2 11.2 88 1.0 S 7 9 4 5 1023.5 1023.5 0.0
16/07:30pm 13.7 12.9 10.9 83 1.5 S 6 7 3 4 1023.2 1023.2 0.0
16/07:00pm 15.7 16.0 12.3 80 1.9 NNE 2 6 1 3 1023.0 1023.0 0.0
16/06:30pm 16.1 15.4 11.3 73 2.6 NE 6 7 3 4 1023.0 1023.0 0.0
16/06:00pm 16.1 15.5 11.7 75 2.4 ESE 6 7 3 4 1023.0 1023.0 0.0
16/05:30pm 16.7 15.9 11.8 73 2.7 ENE 7 13 4 7 1023.0 1023.0 0.0
16/05:00pm 16.6 15.6 13.3 81 1.8 E 11 20 6 11 1023.0 1023.0 0.0
16/04:30pm 17.0 15.3 13.5 80 2.0 ENE 15 20 8 11 1023.1 1023.1 0.0
16/04:00pm 18.1 16.7 15.5 85 1.5 NE 17 24 9 13 1023.2 1023.2 0.0
16/03:30pm 18.6 16.4 16.0 85 1.5 NE 22 32 12 17 1023.4 1023.4 0.0
16/03:00pm 18.6 16.8 16.0 85 1.5 NE 20 30 11 16 1023.7 1023.7 0.0
16/02:30pm 19.1 16.9 13.3 69 3.3 NE 17 28 9 15 1023.9 1023.9 0.0
16/02:00pm 18.9 16.8 12.4 66 3.6 NE 15 24 8 13 1024.2 1024.2 0.0
16/01:30pm 17.5 13.9 12.0 70 3.0 NE 22 33 12 18 1024.4 1024.4 0.0
16/01:00pm 17.7 13.3 11.7 68 3.3 NE 26 35 14 19 1024.5 1024.5 0.0
16/12:30pm 17.8 14.8 14.9 83 1.7 NE 24 33 13 18 1024.8 1024.8 0.0
16/12:00pm 16.9 13.5 13.8 82 1.8 NNE 24 32 13 17 1025.0 1025.0 0.0
16/11:30am 17.6 14.5 12.1 70 3.0 NE 20 30 11 16 1025.4 1025.4 0.0
16/11:00am 17.6 13.9 11.6 68 3.3 NNE 22 32 12 17 1025.6 1025.6 0.0
16/10:30am 17.0 13.5 10.8 67 3.3 NE 20 30 11 16 1025.7 1025.7 0.0
16/10:00am 17.6 14.8 11.4 67 3.4 NE 17 30 9 16 1025.8 1025.8 0.0
16/09:30am 17.5 15.5 11.5 68 3.3 NE 13 20 7 11 1025.8 1025.8 0.0
16/09:00am 16.8 14.6 10.9 68 3.2 NE 13 22 7 12 1025.8 1025.8 0.0
16/08:30am 15.7 15.7 14.1 90 0.9 NE 7 15 4 8 1025.9 1025.9 0.0
16/08:00am 14.1 12.6 10.7 80 1.8 NNE 9 15 5 8 1025.9 1025.9 0.0
16/07:30am 12.8 11.5 11.4 91 0.7 NNE 9 19 5 10 1025.8 1025.8 0.0
16/07:00am 11.6 9.9 11.3 98 0.2 N 11 17 6 9 1025.6 1025.6 0.0
16/06:30am 11.5 10.0 10.7 95 0.4 N 9 20 5 11 1025.3 1025.3 0.0
16/06:00am 12.0 10.3 9.9 87 1.1 N 9 17 5 9 1025.0 1025.0 0.0
16/05:30am 12.4 11.2 10.3 87 1.1 NNE 7 13 4 7 1025.1 1025.1 0.0
16/05:00am 12.5 11.3 10.2 86 1.2 NNE 7 13 4 7 1025.1 1025.1 0.0
16/04:30am 12.5 11.0 10.4 87 1.1 NNE 9 17 5 9 1025.4 1025.4 0.0
16/04:00am 12.6 11.1 10.5 87 1.1 NNE 9 15 5 8 1025.4 1025.4 0.0
16/03:30am 12.6 10.7 10.5 87 1.1 NNE 11 15 6 8 1025.4 1025.4 0.0
16/03:00am 12.6 11.1 10.5 87 1.1 NNE 9 15 5 8 1025.5 1025.5 0.0
16/02:30am 12.6 11.5 10.7 88 1.0 NNE 7 13 4 7 1025.6 1025.6 0.0
16/02:00am 12.5 11.0 10.4 87 1.1 NNE 9 17 5 9 1025.7 1025.7 0.0
16/01:30am 12.5 10.6 10.4 87 1.1 NNE 11 19 6 10 1026.0 1026.0 0.0
16/01:00am 12.6 11.2 11.0 90 0.8 NE 9 15 5 8 1026.3 1026.3 0.0
16/12:30am 12.7 11.4 12.5 99 0.1 NE 11 20 6 11 1026.3 1026.3 0.0
16/12:00am 12.7 11.1 11.6 93 0.6 NE 11 19 6 10 1026.3 1026.3 0.0
 
Date/Time
EDT
Temp
°C
App
Temp
°C
Dew
Point
°C
Rel
Hum
%
Delta-T
°C
Wind Press
QNH
hPa
Press
MSL
hPa
Rain since
9am
mm
Dir  Spd
km/h
Gust
km/h
Spd
kts
Gust
kts
15/11:30pm 12.8 11.0 10.9 88 1.0 NE 11 19 6 10 1026.3 1026.3 0.0
15/11:00pm 12.8 11.3 10.7 87 1.1 NE 9 15 5 8 1026.2 1026.2 0.0
15/10:30pm 12.9 11.6 11.1 89 0.9 NNE 9 13 5 7 1026.2 1026.2 0.0
15/10:00pm 13.0 12.1 12.7 98 0.2 NNE 9 15 5 8 1026.1 1026.1 0.0
15/09:30pm 13.1 12.4 12.0 93 0.6 NE 7 13 4 7 1026.1 1026.1 0.0
15/09:00pm 13.2 12.1 11.8 91 0.7 NE 9 13 5 7 1025.9 1025.9 0.0
15/08:30pm 13.1 11.9 11.7 91 0.7 ENE 9 13 5 7 1025.8 1025.8 0.0
15/08:00pm 13.1 11.8 11.2 88 1.0 NE 9 13 5 7 1025.4 1025.4 0.0
15/07:30pm 13.3 11.9 10.8 85 1.3 ENE 9 15 5 8 1024.9 1024.9 0.0
15/07:00pm 13.6 11.8 11.0 84 1.4 E 11 17 6 9 1024.7 1024.7 0.0
15/06:30pm 14.2 11.7 11.0 81 1.7 E 15 19 8 10 1024.5 1024.5 0.0
15/06:00pm 14.5 11.7 11.5 82 1.6 ESE 17 24 9 13 1024.2 1024.2 0.0
15/05:30pm 15.4 13.0 14.4 94 0.6 ESE 20 28 11 15 1023.9 1023.9 0.0
15/05:00pm 17.2 13.8 12.5 74 2.6 ESE 22 28 12 15 1023.2 1023.2 0.0
15/04:30pm 19.0 16.7 14.1 73 2.8 ESE 19 32 10 17 1022.7 1022.7 0.0
15/04:00pm 19.5 18.1 15.6 78 2.3 ESE 17 22 9 12 1022.2 1022.2 0.0
15/03:30pm 20.2 18.0 13.4 65 3.9 ESE 17 20 9 11 1021.8 1021.8 0.0
15/03:00pm 20.7 20.2 14.8 69 3.5 ESE 11 17 6 9 1021.2 1021.2 0.0
15/02:30pm 21.6 19.8 11.0 51 5.9 ENE 11 19 6 10 1020.9 1020.9 0.0
15/02:00pm 22.8 20.4 8.5 40 7.6 NE 11 19 6 10 1020.7 1020.7 0.0
15/01:30pm 22.3 19.6 8.8 42 7.2 NE 13 20 7 11 1020.6 1020.6 0.0
15/01:00pm 19.4 17.2 10.9 58 4.6 ENE 13 19 7 10 1020.8 1020.8 0.0
15/12:30pm 21.6 18.8 7.1 39 7.5 ENE 11 15 6 8 1020.7 1020.7 0.0
15/12:00pm 21.3 18.9 6.8 39 7.4 ENE 9 15 5 8 1020.8 1020.8 0.0
15/11:30am 20.3 17.9 7.0 42 6.8 E 9 13 5 7 1020.9 1020.9 0.0
15/11:00am 20.7 18.4 9.0 47 6.2 ENE 11 15 6 8 1020.8 1020.8 0.0
15/10:30am 21.8 19.9 6.9 38 7.6 ENE 6 9 3 5 1020.8 1020.8 0.0
15/10:00am 20.2 19.0 9.5 50 5.7 E 6 7 3 4 1020.9 1020.9 0.0
15/09:30am 19.8 18.5 9.1 50 5.7 ESE 6 9 3 5 1020.6 1020.6 0.0
15/09:00am 18.9 19.1 11.9 64 3.9 SSW 2 4 1 2 1020.3 1020.3 0.0
15/08:30am 16.1 15.1 7.3 56 4.4 SE 2 4 1 2 1019.8 1019.9 0.0
15/08:00am 12.7 11.7 7.2 69 2.7 SE 2 6 1 3 1019.5 1019.5 0.0
15/07:30am 12.4 11.1 6.2 66 2.9 SSE 2 4 1 2 1019.1 1019.1 0.0
15/07:00am 12.7 10.9 5.6 62 3.3 WNW 4 7 2 4 1018.6 1018.6 0.0
15/06:30am 11.3 9.6 5.8 69 2.6 NE 4 6 2 3 1018.4 1018.4 0.0
15/06:00am 12.2 10.4 5.6 64 3.1 ENE 4 6 2 3 1018.3 1018.3 0.0
15/05:30am 12.4 10.1 5.6 63 3.2 NNW 7 9 4 5 1018.3 1018.3 0.0
15/05:00am 12.0 9.9 5.6 65 3.0 NW 6 6 3 3 1018.4 1018.4 0.0
15/04:30am 12.0 10.2 5.6 65 3.0 NNW 4 6 2 3 1018.5 1018.5 0.0
15/04:00am 12.5 10.8 5.9 64 3.1 NW 4 6 2 3 1018.6 1018.6 0.0
15/03:30am 11.8 10.1 6.1 68 2.7 N 4 6 2 3 1018.8 1018.8 0.0
15/03:00am 11.9 10.3 6.2 68 2.7 W 4 6 2 3 1019.0 1019.0 0.0
15/02:30am 12.1 10.8 6.2 67 2.8 NNW 2 4 1 2 1019.2 1019.2 0.0
15/02:00am 12.1 10.5 6.4 68 2.7 NW 4 6 2 3 1019.2 1019.2 0.0
15/01:30am 11.4 9.4 6.3 71 2.4 W 6 9 3 5 1019.4 1019.4 0.0
15/01:00am 11.3 9.7 6.4 72 2.3 NW 4 6 2 3 1019.7 1019.8 0.0
15/12:30am 11.9 10.7 6.6 70 2.5 NW 2 6 1 3 1019.8 1019.9 0.0
15/12:00am 12.1 10.0 6.6 69 2.6 NW 7 9 4 5 1019.8 1019.9 0.0
 
Date/Time
EDT
Temp
°C
App
Temp
°C
Dew
Point
°C
Rel
Hum
%
Delta-T
°C
Wind Press
QNH
hPa
Press
MSL
hPa
Rain since
9am
mm
Dir  Spd
km/h
Gust
km/h
Spd
kts
Gust
kts
14/11:30pm 10.6 8.4 6.4 75 2.0 NNW 7 9 4 5 1020.0 1020.0 0.0
14/11:00pm 10.4 8.7 6.0 74 2.0 N 4 6 2 3 1020.2 1020.2 0.0
14/10:30pm 10.7 9.0 5.7 71 2.3 NNW 4 6 2 3 1020.2 1020.2 0.0
14/10:00pm 10.3 8.2 5.7 73 2.1 W 6 7 3 4 1020.3 1020.3 0.0
14/09:30pm 9.7 9.4 8.6 93 0.5 CALM 0 0 0 0 1020.3 1020.3 0.0
14/09:00pm 10.4 10.1 8.7 89 0.8 CALM 0 2 0 1 1020.4 1020.4 0.0
14/08:30pm 10.2 9.4 8.3 88 0.9 SSW 2 2 1 1 1020.2 1020.2 0.0
14/08:00pm 10.0 8.5 8.4 90 0.8 NE 6 7 3 4 1019.7 1019.8 0.0
14/07:30pm 11.0 9.2 8.1 82 1.4 NNE 7 9 4 5 1019.7 1019.8 0.0
14/07:00pm 12.1 10.6 8.6 79 1.7 NE 6 9 3 5 1019.5 1019.5 0.0

Other Formats:

Comma delimited format used in spreadsheet applications
http://www.bom.gov.au/fwo/IDT60801/IDT60801.94987.axf

JavaScript Object Notation format (JSON) in row-major order
http://www.bom.gov.au/fwo/IDT60801/IDT60801.94987.json